createdAt,value
2018-05-01T00:00:29.995Z,93.22
2018-05-01T00:01:04.677Z,92.93
2018-05-01T00:02:04.435Z,92.74
2018-05-01T00:03:03.403Z,92.36
2018-05-01T00:04:04.089Z,92.27
2018-05-01T00:05:04.481Z,92.55
2018-05-01T00:06:03.497Z,92.74
2018-05-01T00:07:04.776Z,92.74
2018-05-01T00:08:04.213Z,92.74
2018-05-01T00:09:04.808Z,92.84
2018-05-01T00:10:05.257Z,92.55
2018-05-01T00:11:04.888Z,92.55
2018-05-01T00:12:05.429Z,93.79
2018-05-01T00:13:05.249Z,93.41
2018-05-01T00:14:05.526Z,92.84
2018-05-01T00:15:05.081Z,92.89
2018-05-01T00:16:04.956Z,93.6
2018-05-01T00:17:05.760Z,94.98
2018-05-01T00:18:04.978Z,95.46
2018-05-01T00:19:05.176Z,96.22
2018-05-01T00:20:05.358Z,96.32
2018-05-01T00:21:05.260Z,96.03
2018-05-01T00:22:05.371Z,94.98
2018-05-01T00:23:05.311Z,94.32
2018-05-01T00:24:05.326Z,93.74
2018-05-01T00:25:05.407Z,94.51
2018-05-01T00:26:05.391Z,94.22
2018-05-01T00:27:05.690Z,93.74
2018-05-01T00:28:06.128Z,93.08
2018-05-01T00:29:06.144Z,92.79
2018-05-01T00:30:06.201Z,91.94
2018-05-01T00:31:06.464Z,91.69
2018-05-01T00:32:06.837Z,92.5
2018-05-01T00:33:06.856Z,91.79
2018-05-01T00:34:06.758Z,92.74
2018-05-01T00:35:07.461Z,91.69
2018-05-01T00:36:07.192Z,90.45
2018-05-01T00:37:08.010Z,89.6
2018-05-01T00:38:07.938Z,88.36
2018-05-01T00:39:07.982Z,87.31
2018-05-01T00:40:08.163Z,86.74
2018-05-01T00:41:08.323Z,86.16
2018-05-01T00:42:08.358Z,85.93
2018-05-01T00:43:08.757Z,86.4
2018-05-01T00:44:09.291Z,86.3
2018-05-01T00:45:09.264Z,86.69
2018-05-01T00:46:09.393Z,87.07
2018-05-01T00:47:09.179Z,87.54
2018-05-01T00:48:09.835Z,87.31
2018-05-01T00:49:09.876Z,87.69
2018-05-01T00:50:10.064Z,88.07
2018-05-01T00:51:10.475Z,88.07
2018-05-01T00:52:10.511Z,88.74
2018-05-01T00:53:10.253Z,89.12
2018-05-01T00:54:10.408Z,89.5
2018-05-01T00:55:10.691Z,89.4
2018-05-01T00:56:11.152Z,89.31
2018-05-01T00:57:10.733Z,89.6
2018-05-01T00:58:10.908Z,89.4
2018-05-01T00:59:11.084Z,90.08
2018-05-01T01:00:11.491Z,90.17
2018-05-01T01:01:11.521Z,89.89
2018-05-01T01:02:11.744Z,89.6
2018-05-01T01:03:12.308Z,89.69
2018-05-01T01:04:12.527Z,89.46
2018-05-01T01:05:13.008Z,89.6
2018-05-01T01:06:13.195Z,89.69
2018-05-01T01:07:13.385Z,89.69
2018-05-01T01:08:13.408Z,89.65
2018-05-01T01:09:13.183Z,89.55
2018-05-01T01:10:13.736Z,89.94
2018-05-01T01:11:13.602Z,90.12
2018-05-01T01:12:13.835Z,89.65
2018-05-01T01:13:14.503Z,89.55
2018-05-01T01:14:14.532Z,89.55
2018-05-01T01:15:14.248Z,89.84
2018-05-01T01:16:14.542Z,90.41
2018-05-01T01:17:14.385Z,90.12
2018-05-01T01:18:14.712Z,89.46
2018-05-01T01:19:14.740Z,90.31
2018-05-01T01:20:15.356Z,90.41
2018-05-01T01:21:15.432Z,89.46
2018-05-01T01:22:15.090Z,89.65
2018-05-01T01:23:15.492Z,89.36
2018-05-01T01:24:15.292Z,89.07
2018-05-01T01:25:17.218Z,88.55
2018-05-01T01:26:16.656Z,88.22
2018-05-01T01:27:16.622Z,87.6
2018-05-01T01:28:16.327Z,87.4
2018-05-01T01:29:16.562Z,87.79
2018-05-01T01:30:16.916Z,87.6
2018-05-01T01:31:16.853Z,87.31
2018-05-01T01:32:16.879Z,87.6
2018-05-01T01:33:17.116Z,87.88
2018-05-01T01:34:17.510Z,87.88
2018-05-01T01:35:17.475Z,87.69
2018-05-01T01:36:17.551Z,87.88
2018-05-01T01:37:17.891Z,88.07
2018-05-01T01:38:17.922Z,87.69
2018-05-01T01:39:18.006Z,87.88
2018-05-01T01:40:18.905Z,87.98
2018-05-01T01:41:17.717Z,87.98
2018-05-01T01:42:18.001Z,87.31
2018-05-01T01:43:18.059Z,87.5
2018-05-01T01:44:17.883Z,87.5
2018-05-01T01:45:18.155Z,87.02
2018-05-01T01:46:18.487Z,86.74
2018-05-01T01:47:18.366Z,87.02
2018-05-01T01:48:18.244Z,86.45
2018-05-01T01:49:18.279Z,86.74
2018-05-01T01:50:18.026Z,86.16
2018-05-01T01:51:18.344Z,85.69
2018-05-01T01:52:18.085Z,85.6
2018-05-01T01:53:19.008Z,85.02
2018-05-01T01:54:19.261Z,85.6
2018-05-01T01:55:19.387Z,85.73
2018-05-01T01:56:19.046Z,85.5
2018-05-01T01:57:19.511Z,85.41
2018-05-01T01:58:19.241Z,85.21
2018-05-01T01:59:19.566Z,85.21
2018-05-01T02:00:19.319Z,85.31
2018-05-01T02:01:19.637Z,85.12
2018-05-01T02:02:19.736Z,84.36
2018-05-01T02:03:19.720Z,84.3
2018-05-01T02:04:19.718Z,83.78
2018-05-01T02:05:19.966Z,83.92
2018-05-01T02:06:20.275Z,84.26
2018-05-01T02:07:20.326Z,84.01
2018-05-01T02:08:20.333Z,84.16
2018-05-01T02:09:20.359Z,83.4
2018-05-01T02:10:20.114Z,83.69
2018-05-01T02:11:20.610Z,83.69
2018-05-01T02:12:20.473Z,83.5
2018-05-01T02:13:20.476Z,83.69
2018-05-01T02:14:20.503Z,83.59
2018-05-01T02:15:20.564Z,83.5
2018-05-01T02:16:20.570Z,83.5
2018-05-01T02:17:20.865Z,83.5
2018-05-01T02:18:20.949Z,83.59
2018-05-01T02:19:21.045Z,82.92
2018-05-01T02:20:21.942Z,83.78
2018-05-01T02:21:21.406Z,83.59
2018-05-01T02:22:21.673Z,83.31
2018-05-01T02:23:21.864Z,83.02
2018-05-01T02:24:22.341Z,82.83
2018-05-01T02:25:23.104Z,82.54
2018-05-01T02:26:22.894Z,82.64
2018-05-01T02:27:23.173Z,82.07
2018-05-01T02:28:23.203Z,81.97
2018-05-01T02:29:23.752Z,82.17
2018-05-01T02:30:23.777Z,82.64
2018-05-01T02:31:24.178Z,82.35
2018-05-01T02:32:23.860Z,82.73
2018-05-01T02:33:24.330Z,83.02
2018-05-01T02:34:24.379Z,83.69
2018-05-01T02:35:24.438Z,83.59
2018-05-01T02:36:24.420Z,83.78
2018-05-01T02:37:24.615Z,83.78
2018-05-01T02:38:24.834Z,83.69
2018-05-01T02:39:25.290Z,84.07
2018-05-01T02:40:25.312Z,83.4
2018-05-01T02:41:25.326Z,83.59
2018-05-01T02:42:25.237Z,83.78
2018-05-01T02:43:25.748Z,83.69
2018-05-01T02:44:25.784Z,83.59
2018-05-01T02:45:25.801Z,83.59
2018-05-01T02:46:25.841Z,83.59
2018-05-01T02:47:25.857Z,83.59
2018-05-01T02:48:25.891Z,83.4
2018-05-01T02:49:25.679Z,83.69
2018-05-01T02:50:26.207Z,83.69
2018-05-01T02:51:26.233Z,83.21
2018-05-01T02:52:26.286Z,83.31
2018-05-01T02:53:26.304Z,83.59
2018-05-01T02:54:26.048Z,83.59
2018-05-01T02:55:26.521Z,83.69
2018-05-01T02:56:26.559Z,83.69
2018-05-01T02:57:26.578Z,83.31
2018-05-01T02:58:26.617Z,83.59
2018-05-01T02:59:26.797Z,83.69
2018-05-01T03:00:28.689Z,83.78
2018-05-01T03:01:28.468Z,83.59
2018-05-01T04:00:14.363Z,79.57
2018-05-01T04:00:55.186Z,78.05
2018-05-01T04:01:55.273Z,78.23
2018-05-01T04:02:55.270Z,78.43
2018-05-01T04:03:55.221Z,78.23
2018-05-01T04:04:55.245Z,78.14
2018-05-01T04:05:55.843Z,77.86
2018-05-01T04:06:55.792Z,78.23
2018-05-01T04:07:56.265Z,77.09
2018-05-01T04:08:56.390Z,77.38
2018-05-01T04:09:56.317Z,78.23
2018-05-01T04:10:56.074Z,79.71
2018-05-01T04:11:56.479Z,78.47
2018-05-01T04:12:56.439Z,77.47
2018-05-01T04:13:56.469Z,76.23
2018-05-01T04:14:56.509Z,75.37
2018-05-01T04:15:56.979Z,76.08
2018-05-01T04:16:57.046Z,75.51
2018-05-01T04:17:56.750Z,75.03
2018-05-01T04:18:57.246Z,74.46
2018-05-01T04:19:57.254Z,74.55
2018-05-01T04:20:57.276Z,74.46
2018-05-01T04:21:57.305Z,75.6
2018-05-01T04:22:57.062Z,75.42
2018-05-01T04:23:57.810Z,75.03
2018-05-01T04:24:58.020Z,75.13
2018-05-01T04:25:58.035Z,75.6
2018-05-01T04:26:58.063Z,76.08
2018-05-01T04:27:58.255Z,75.89
2018-05-01T04:28:58.285Z,76.27
2018-05-01T04:29:58.039Z,76.75
2018-05-01T04:30:58.346Z,76.46
2018-05-01T04:31:58.383Z,76.08
2018-05-01T04:32:58.123Z,76.75
2018-05-01T04:33:58.169Z,76.46
2018-05-01T04:34:58.515Z,75.98
2018-05-01T04:35:58.822Z,75.6
2018-05-01T04:36:58.849Z,75.42
2018-05-01T04:37:58.880Z,75.6
2018-05-01T04:38:59.353Z,76.08
2018-05-01T04:39:59.376Z,76.65
2018-05-01T04:40:59.428Z,77.32
2018-05-01T04:41:59.169Z,76.18
2018-05-01T04:42:59.492Z,76.18
2018-05-01T04:43:59.699Z,75.51
2018-05-01T04:44:59.652Z,75.32
2018-05-01T04:46:00.218Z,75.98
2018-05-01T04:46:59.966Z,75.98
2018-05-01T04:48:00.454Z,75.22
2018-05-01T04:49:00.663Z,75.6
2018-05-01T04:50:01.073Z,76.37
2018-05-01T04:51:01.122Z,77.42
2018-05-01T04:52:01.620Z,76.18
2018-05-01T04:53:01.649Z,76.84
2018-05-01T04:54:01.414Z,76.56
2018-05-01T04:55:02.365Z,75.89
2018-05-01T04:56:02.769Z,75.6
2018-05-01T04:57:02.355Z,76.37
2018-05-01T04:58:02.847Z,76.37
2018-05-01T04:59:02.917Z,76.08
2018-05-01T05:01:02.663Z,76.27
2018-05-01T05:02:02.935Z,75.98
2018-05-01T05:03:03.077Z,76.46
2018-05-01T05:04:03.552Z,76.37
2018-05-01T05:05:03.436Z,77.61
2018-05-01T05:06:03.821Z,77.23
2018-05-01T05:07:03.670Z,77.99
2018-05-01T05:08:03.685Z,78.94
2018-05-01T05:09:03.832Z,78.37
2018-05-01T05:10:03.573Z,77.42
2018-05-01T05:11:04.006Z,78.18
2018-05-01T05:12:04.432Z,77.32
2018-05-01T05:13:04.447Z,76.94
2018-05-01T05:14:04.868Z,76.27
2018-05-01T05:15:05.015Z,77.7
2018-05-01T05:16:04.890Z,76.56
2018-05-01T05:17:05.475Z,76.08
2018-05-01T05:18:05.238Z,76.27
2018-05-01T05:19:05.729Z,77.99
2018-05-01T05:20:06.486Z,77.89
2018-05-01T05:21:06.930Z,76.94
2018-05-01T05:22:07.079Z,76.27
2018-05-01T05:23:07.113Z,75.6
2018-05-01T05:24:07.269Z,75.51
2018-05-01T05:25:07.308Z,75.07
2018-05-01T05:26:07.338Z,74.02
2018-05-01T05:27:07.373Z,73.63
2018-05-01T05:28:07.519Z,74.21
2018-05-01T05:29:07.606Z,73.77
2018-05-01T05:30:07.730Z,72.85
2018-05-01T05:31:08.761Z,70.94
2018-05-01T05:32:08.170Z,70.75
2018-05-01T05:33:08.573Z,70.01
2018-05-01T05:34:08.348Z,70.01
2018-05-01T05:35:08.631Z,69.67
2018-05-01T05:36:08.803Z,68.65
2018-05-01T05:37:08.839Z,66
2018-05-01T05:38:08.868Z,65.62
2018-05-01T05:39:08.617Z,64.98
2018-05-01T05:40:09.073Z,64.31
2018-05-01T05:41:09.104Z,63.54
2018-05-01T05:42:09.508Z,63.57
2018-05-01T05:43:09.549Z,63.76
2018-05-01T05:44:10.037Z,64.4
2018-05-01T05:45:10.046Z,64.98
2018-05-01T05:46:10.475Z,65.08
2018-05-01T05:47:10.874Z,65.05
2018-05-01T05:48:10.920Z,65.23
2018-05-01T05:49:10.936Z,65.17
2018-05-01T05:50:11.350Z,63.73
2018-05-01T05:51:11.511Z,63.45
2018-05-01T05:52:11.650Z,63
2018-05-01T05:53:11.411Z,61.69
2018-05-01T05:54:12.085Z,60.08
2018-05-01T05:55:12.112Z,58.96
2018-05-01T05:56:11.898Z,58.42
2018-05-01T05:57:12.170Z,57.22
2018-05-01T05:58:12.797Z,56.45
2018-05-01T05:59:12.709Z,55.4
2018-05-01T06:00:12.738Z,54.65
2018-05-01T06:01:13.214Z,55.43
2018-05-01T06:02:13.358Z,54.87
2018-05-01T06:03:13.389Z,54.3
2018-05-01T06:04:13.420Z,54.56
2018-05-01T06:05:13.943Z,54.94
2018-05-01T06:06:13.936Z,53.78
2018-05-01T06:07:14.012Z,54.75
2018-05-01T06:08:13.991Z,54.08
2018-05-01T06:09:13.756Z,54.75
2018-05-01T06:10:14.066Z,53.21
2018-05-01T06:11:14.524Z,53.53
2018-05-01T06:12:14.573Z,53.17
2018-05-01T06:13:15.103Z,52.13
2018-05-01T06:14:15.116Z,50.71
2018-05-01T06:15:15.307Z,49.41
2018-05-01T06:16:15.624Z,46.3
2018-05-01T06:17:15.647Z,45.93
2018-05-01T06:18:15.688Z,44.98
2018-05-01T06:19:15.718Z,44.98
2018-05-01T06:20:16.172Z,44.5
2018-05-01T06:21:16.201Z,44.53
2018-05-01T06:22:16.132Z,45.08
2018-05-01T06:23:16.710Z,45.18
2018-05-01T06:24:16.742Z,43.75
2018-05-01T06:25:16.782Z,43.38
2018-05-01T06:26:16.823Z,43.87
2018-05-01T06:27:17.364Z,43.68
2018-05-01T06:28:16.921Z,42.54
2018-05-01T06:29:17.645Z,42.05
2018-05-01T06:30:18.102Z,41.58
2018-05-01T06:31:17.870Z,41.41
2018-05-01T06:32:18.029Z,41.43
2018-05-01T06:33:18.618Z,40.75
2018-05-01T06:34:18.649Z,40.09
2018-05-01T06:35:18.681Z,39.92
2018-05-01T06:36:19.120Z,39.45
2018-05-01T06:37:19.581Z,39.92
2018-05-01T06:38:19.575Z,39.9
2018-05-01T06:39:20.329Z,39.61
2018-05-01T06:40:20.358Z,39.92
2018-05-01T06:41:20.373Z,39.72
2018-05-01T06:42:20.580Z,39.14
2018-05-01T06:43:20.353Z,39.24
2018-05-01T06:44:20.929Z,39.51
2018-05-01T06:45:20.886Z,39.34
2018-05-01T06:46:20.940Z,38.95
2018-05-01T06:47:21.183Z,39.7
2018-05-01T06:48:21.205Z,41.58
2018-05-01T06:49:21.671Z,43.99
2018-05-01T06:50:22.140Z,45.31
2018-05-01T06:51:22.338Z,45.76
2018-05-01T06:52:22.653Z,44.05
2018-05-01T06:53:22.880Z,43.41
2018-05-01T06:54:23.348Z,42.93
2018-05-01T06:55:23.820Z,42.96
2018-05-01T06:56:23.850Z,41.56
2018-05-01T06:57:23.897Z,41.22
2018-05-01T06:58:24.103Z,39.95
2018-05-01T06:59:23.871Z,39.86
2018-05-01T07:00:24.183Z,41.39
2018-05-01T07:01:24.398Z,41.45
2018-05-01T07:02:24.598Z,42.66
2018-05-01T07:03:24.648Z,43.88
2018-05-01T07:04:25.347Z,45.01
2018-05-01T07:05:25.137Z,45.01
2018-05-01T07:06:25.169Z,44.82
2018-05-01T07:07:25.204Z,44.84
2018-05-01T07:08:25.144Z,43.66
2018-05-01T07:09:25.881Z,45.36
2018-05-01T07:10:26.550Z,46.37
2018-05-01T07:11:26.297Z,48.28
2018-05-01T07:12:26.738Z,49.7
2018-05-01T07:13:26.918Z,50.35
2018-05-01T07:14:27.399Z,50.99
2018-05-01T07:15:27.421Z,50.97
2018-05-01T07:16:27.458Z,51.17
2018-05-01T07:17:27.989Z,52.03
2018-05-01T07:18:28.028Z,51.62
2018-05-01T07:19:27.809Z,52.2
2018-05-01T07:20:27.863Z,52.58
2018-05-01T07:21:28.136Z,52.32
2018-05-01T07:22:28.169Z,51.93
2018-05-01T07:23:28.288Z,50.59
2018-05-01T07:24:28.513Z,50.61
2018-05-01T07:25:28.547Z,50.42
2018-05-01T07:26:29.031Z,50.51
2018-05-01T07:27:29.233Z,50.25
2018-05-01T07:28:29.043Z,49.99
2018-05-01T07:29:29.876Z,47.7
2018-05-01T07:30:29.804Z,46.95
2018-05-01T07:31:30.134Z,46.66
2018-05-01T07:32:30.195Z,46.76
2018-05-01T07:33:30.180Z,47.6
2018-05-01T07:34:30.140Z,47.63
2018-05-01T07:35:30.508Z,46.66
2018-05-01T07:36:30.458Z,47.36
2018-05-01T07:37:30.515Z,46.81
2018-05-01T07:38:30.547Z,45.57
2018-05-01T07:39:30.743Z,43.85
2018-05-01T07:40:30.543Z,43.1
2018-05-01T07:41:31.206Z,43.47
2018-05-01T07:42:30.641Z,43.3
2018-05-01T07:43:30.883Z,42.7
2018-05-01T07:44:31.080Z,43.45
2018-05-01T07:45:31.551Z,42.68
2018-05-01T07:46:31.317Z,42.68
2018-05-01T07:47:32.109Z,43.06
2018-05-01T07:48:32.107Z,43.28
2018-05-01T07:49:32.238Z,43.76
2018-05-01T07:50:32.292Z,43.57
2018-05-01T07:51:32.338Z,43.54
2018-05-01T07:52:32.177Z,43.91
2018-05-01T07:53:32.163Z,44.76
2018-05-01T07:54:32.187Z,45.58
2018-05-01T07:55:32.231Z,46.33
2018-05-01T07:56:32.696Z,48.02
2018-05-01T07:57:32.738Z,48.38
2018-05-01T07:58:32.823Z,48.66
2018-05-01T07:59:32.843Z,47.7
2018-05-01T08:00:32.899Z,46.98
2018-05-01T08:01:32.995Z,47
2018-05-01T08:02:33.466Z,47.49
2018-05-01T08:03:33.306Z,46.62
2018-05-01T08:04:34.015Z,45.7
2018-05-01T08:05:33.914Z,43.33
2018-05-01T08:06:33.990Z,42.6
2018-05-01T08:07:33.939Z,41.54
2018-05-01T08:08:34.386Z,43.04
2018-05-01T08:09:34.814Z,42.61
2018-05-01T08:10:35.082Z,42.8
2018-05-01T08:11:34.874Z,43.94
2018-05-01T08:12:34.939Z,44.89
2018-05-01T08:13:35.358Z,45.36
2018-05-01T08:14:35.457Z,45.17
2018-05-01T08:15:36.167Z,45.75
2018-05-01T08:16:36.175Z,45.2
2018-05-01T08:17:36.371Z,43.62
2018-05-01T08:18:36.376Z,42.77
2018-05-01T08:19:36.295Z,41.44
2018-05-01T08:20:36.053Z,41.54
2018-05-01T08:21:36.505Z,41.15
2018-05-01T08:22:36.255Z,40.52
2018-05-01T08:23:36.631Z,40.34
2018-05-01T08:24:37.013Z,40.46
2018-05-01T08:25:37.075Z,38.85
2018-05-01T08:26:37.077Z,38.4
2018-05-01T08:27:37.129Z,37.82
2018-05-01T08:28:37.524Z,38.39
2018-05-01T08:29:37.920Z,38.27
2018-05-01T08:30:38.279Z,39.22
2018-05-01T08:31:38.110Z,39.76
2018-05-01T08:32:38.140Z,41.19
2018-05-01T08:33:38.483Z,42.89
2018-05-01T08:34:38.902Z,43.33
2018-05-01T08:35:38.658Z,43.98
2018-05-01T08:36:39.167Z,44.73
2018-05-01T08:37:39.139Z,43.67
2018-05-01T08:38:39.124Z,44.35
2018-05-01T08:39:39.076Z,45
2018-05-01T08:40:38.910Z,44.9
2018-05-01T08:41:39.130Z,44.45
2018-05-01T08:42:39.162Z,44.39
2018-05-01T08:43:39.340Z,42.48
2018-05-01T08:44:39.390Z,41.08
2018-05-01T08:45:39.414Z,40.52
2018-05-01T08:46:39.463Z,41.15
2018-05-01T08:47:39.495Z,41.56
2018-05-01T08:48:39.721Z,41
2018-05-01T08:49:39.556Z,41.29
2018-05-01T08:50:39.784Z,39.95
2018-05-01T08:51:39.988Z,37.98
2018-05-01T08:52:40.241Z,36.66
2018-05-01T08:53:40.689Z,36.44
2018-05-01T08:54:40.710Z,37.77
2018-05-01T08:55:40.689Z,38.23
2018-05-01T08:56:40.758Z,38.53
2018-05-01T08:57:41.442Z,38.33
2018-05-01T08:58:41.492Z,39.55
2018-05-01T08:59:41.997Z,39.09
2018-05-01T09:00:42.523Z,38.68
2018-05-01T09:01:42.477Z,37.82
2018-05-01T09:02:42.528Z,38.91
2018-05-01T09:03:42.843Z,38.83
2018-05-01T09:04:43.092Z,36.76
2018-05-01T09:05:43.047Z,35.58
2018-05-01T09:06:42.944Z,34.17
2018-05-01T09:07:43.392Z,32.67
2018-05-01T09:08:43.409Z,31.93
2018-05-01T09:09:43.474Z,31.16
2018-05-01T09:10:43.204Z,31.18
2018-05-01T09:11:43.244Z,30.41
2018-05-01T09:12:43.679Z,31.36
2018-05-01T09:13:43.702Z,32.37
2018-05-01T09:14:43.859Z,32.37
2018-05-01T09:15:44.159Z,31.56
2018-05-01T09:16:44.088Z,30.33
2018-05-01T09:17:44.523Z,29.69
2018-05-01T09:18:44.417Z,28.95
2018-05-01T09:19:44.457Z,28.37
2018-05-01T09:20:44.888Z,27.71
2018-05-01T09:21:44.671Z,27.12
2018-05-01T09:22:44.698Z,27.28
2018-05-01T09:23:45.101Z,27.85
2018-05-01T09:24:45.160Z,28.33
2018-05-01T09:25:45.197Z,29.49
2018-05-01T09:26:45.641Z,28.99
2018-05-01T09:27:45.795Z,29.59
2018-05-01T09:28:46.334Z,28.82
2018-05-01T09:29:46.313Z,29.03
2018-05-01T09:30:46.348Z,28.95
2018-05-01T09:31:46.375Z,29.33
2018-05-01T09:32:46.535Z,28.83
2018-05-01T09:33:46.962Z,29.72
2018-05-01T09:34:47.287Z,28.85
2018-05-01T09:35:47.475Z,30.25
2018-05-01T09:36:47.608Z,31.54
2018-05-01T09:37:48.013Z,32.58
2018-05-01T09:38:48.048Z,33.02
2018-05-01T09:39:47.813Z,33.43
2018-05-01T09:40:48.486Z,32.06
2018-05-01T09:41:48.592Z,32.68
2018-05-01T09:42:48.778Z,31.33
2018-05-01T09:43:48.799Z,31.07
2018-05-01T09:44:48.845Z,32.73
2018-05-01T09:45:49.269Z,30.77
2018-05-01T09:46:49.497Z,31.62
2018-05-01T09:47:49.262Z,31.49
2018-05-01T09:48:49.606Z,32.96
2018-05-01T09:49:49.628Z,33.04
2018-05-01T09:50:49.648Z,33.15
2018-05-01T09:51:49.535Z,32.31
2018-05-01T09:52:50.252Z,32.48
2018-05-01T09:53:50.362Z,32.99
2018-05-01T09:54:50.539Z,31.7
2018-05-01T09:55:50.593Z,31.25
2018-05-01T09:56:50.757Z,31.56
2018-05-01T09:57:50.876Z,30.98
2018-05-01T09:58:50.914Z,30.51
2018-05-01T09:59:51.342Z,29.35
2018-05-01T10:00:51.549Z,30.72
2018-05-01T10:01:51.649Z,29.94
2018-05-01T10:02:51.330Z,30.04
2018-05-01T10:03:51.647Z,30.52
2018-05-01T10:04:51.401Z,30.55
2018-05-01T10:05:52.160Z,30.16
2018-05-01T10:06:52.377Z,30.27
2018-05-01T10:07:52.126Z,30.16
2018-05-01T10:08:52.605Z,31.34
2018-05-01T10:09:52.665Z,30.55
2018-05-01T10:10:52.669Z,30.85
2018-05-01T10:11:52.842Z,30.19
2018-05-01T10:12:53.162Z,29.41
2018-05-01T10:13:53.224Z,29.33
2018-05-01T10:14:53.242Z,28.34
2018-05-01T10:15:53.014Z,28.92
2018-05-01T10:16:53.304Z,28.53
2018-05-01T10:17:53.337Z,28.92
2018-05-01T10:18:53.569Z,29.77
2018-05-01T10:19:53.614Z,31.32
2018-05-01T10:20:53.709Z,30.98
2018-05-01T10:21:53.949Z,31.85
2018-05-01T10:22:54.150Z,31.08
2018-05-01T10:23:54.182Z,31.59
2018-05-01T10:24:53.966Z,31.01
2018-05-01T10:25:54.502Z,31.29
2018-05-01T10:26:54.508Z,30.72
2018-05-01T10:27:54.809Z,31.46
2018-05-01T10:28:55.108Z,32.19
2018-05-01T10:29:55.406Z,31.69
2018-05-01T10:30:55.707Z,32.28
2018-05-01T10:31:55.711Z,32.58
2018-05-01T10:32:55.709Z,32.42
2018-05-01T10:33:55.537Z,31.52
2018-05-01T10:34:56.141Z,31.54
2018-05-01T10:35:55.819Z,31.62
2018-05-01T10:36:56.003Z,31.52
2018-05-01T10:37:56.112Z,32.24
2018-05-01T10:38:56.092Z,31.04
2018-05-01T10:39:55.950Z,32.68
2018-05-01T10:40:55.995Z,32.48
2018-05-01T10:41:56.025Z,33.25
2018-05-01T10:42:55.760Z,33.17
2018-05-01T10:43:56.061Z,32.21
2018-05-01T10:44:56.193Z,33.01
2018-05-01T10:45:55.868Z,32.03
2018-05-01T10:46:56.240Z,32.23
2018-05-01T10:47:56.508Z,32.32
2018-05-01T10:48:56.549Z,32.6
2018-05-01T10:49:56.867Z,32.39
2018-05-01T10:50:56.837Z,32.58
2018-05-01T10:51:56.871Z,32.67
2018-05-01T10:52:56.916Z,33.72
2018-05-01T10:53:57.243Z,34.58
2018-05-01T10:54:57.291Z,33.59
2018-05-01T10:55:57.329Z,34.84
2018-05-01T10:56:57.359Z,34.64
2018-05-01T10:57:57.585Z,34.92
2018-05-01T10:58:57.773Z,34.55
2018-05-01T10:59:58.079Z,34.66
2018-05-01T11:00:58.215Z,34.29
2018-05-01T11:01:57.870Z,33.22
2018-05-01T11:02:58.238Z,34.09
2018-05-01T11:03:58.499Z,34.56
2018-05-01T11:04:58.615Z,34.08
2018-05-01T11:05:58.564Z,34.92
2018-05-01T11:06:58.488Z,34.52
2018-05-01T11:07:58.550Z,35.47
2018-05-01T11:08:58.753Z,35.86
2018-05-01T11:09:59.153Z,35.86
2018-05-01T11:10:59.035Z,36.36
2018-05-01T11:11:59.103Z,37.08
2018-05-01T11:12:58.900Z,36.22
2018-05-01T11:13:59.392Z,36.83
2018-05-01T11:14:59.465Z,37.2
2018-05-01T11:15:59.652Z,36.89
2018-05-01T11:16:59.907Z,37.74
2018-05-01T11:18:00.345Z,37.26
2018-05-01T11:19:00.384Z,38.21
2018-05-01T11:20:00.404Z,38.4
2018-05-01T11:21:00.590Z,38.48
2018-05-01T11:22:00.741Z,39.51
2018-05-01T11:23:00.936Z,39.37
2018-05-01T11:24:00.962Z,41.66
2018-05-01T11:25:01.115Z,42.68
2018-05-01T11:26:00.835Z,44.2
2018-05-01T11:27:01.213Z,45.03
2018-05-01T11:28:01.187Z,45.56
2018-05-01T11:29:00.886Z,45.65
2018-05-01T11:30:01.530Z,45.92
2018-05-01T11:31:01.236Z,46.21
2018-05-01T11:32:01.403Z,47.77
2018-05-01T11:33:01.521Z,46.14
2018-05-01T11:34:01.575Z,46.55
2018-05-01T11:35:01.703Z,46.25
2018-05-01T11:36:01.759Z,45.87
2018-05-01T11:37:02.457Z,45.68
2018-05-01T11:38:01.891Z,46.23
2018-05-01T11:39:02.202Z,47.85
2018-05-01T11:40:02.255Z,48.49
2018-05-01T11:41:01.994Z,48.38
2018-05-01T11:42:02.543Z,48.74
2018-05-01T11:43:02.405Z,50.92
2018-05-01T11:44:02.419Z,50.8
2018-05-01T11:45:03.053Z,52.14
2018-05-01T11:46:02.894Z,51.76
2018-05-01T11:47:02.644Z,51.35
2018-05-01T11:48:03.125Z,52.4
2018-05-01T11:49:03.162Z,53.66
2018-05-01T11:50:02.899Z,52.14
2018-05-01T11:51:03.251Z,51.45
2018-05-01T11:52:03.285Z,51.93
2018-05-01T11:53:03.222Z,51.93
2018-05-01T11:54:03.705Z,51.54
2018-05-01T11:55:03.966Z,52.4
2018-05-01T11:56:03.934Z,52.89
2018-05-01T11:57:03.678Z,53.08
2018-05-01T11:58:04.105Z,53.27
2018-05-01T11:59:04.223Z,53.85
2018-05-01T12:00:06.335Z,53.46
2018-05-01T13:00:02.793Z,57.15
2018-05-01T13:00:28.513Z,57.03
2018-05-01T13:01:27.889Z,56.16
2018-05-01T13:02:26.981Z,56.83
2018-05-01T13:03:26.916Z,55.87
2018-05-01T13:04:27.056Z,55.21
2018-05-01T13:05:27.778Z,55.97
2018-05-01T13:06:27.823Z,56.45
2018-05-01T13:07:28.210Z,57.03
2018-05-01T13:08:28.565Z,56.64
2018-05-01T13:09:28.718Z,56.93
2018-05-01T13:10:29.133Z,57.7
2018-05-01T13:11:29.025Z,57.67
2018-05-01T13:12:29.712Z,56.81
2018-05-01T13:13:29.664Z,55.65
2018-05-01T13:14:29.522Z,56.35
2018-05-01T13:15:29.574Z,56.93
2018-05-01T13:16:30.072Z,56.16
2018-05-01T13:17:29.805Z,55.4
2018-05-01T13:18:30.109Z,55.85
2018-05-01T13:19:30.246Z,56.42
2018-05-01T13:20:30.788Z,56.81
2018-05-01T13:21:31.001Z,57.03
2018-05-01T13:22:31.021Z,56.83
2018-05-01T13:23:31.073Z,56.07
2018-05-01T13:24:30.811Z,56.26
2018-05-01T13:25:31.134Z,56.45
2018-05-01T13:26:30.875Z,56.93
2018-05-01T13:27:31.209Z,56.23
2018-05-01T13:28:31.580Z,55.08
2018-05-01T13:29:31.619Z,56.61
2018-05-01T13:30:31.490Z,56.42
2018-05-01T13:31:31.893Z,56.81
2018-05-01T13:32:32.511Z,58.24
2018-05-01T13:33:31.966Z,56.9
2018-05-01T13:34:32.009Z,57.45
2018-05-01T13:35:32.179Z,57.35
2018-05-01T13:36:32.198Z,58.69
2018-05-01T13:37:32.999Z,59.36
2018-05-01T13:38:32.889Z,59.08
2018-05-01T13:39:32.925Z,58.22
2018-05-01T13:40:33.100Z,59.08
2018-05-01T13:41:33.241Z,59.65
2018-05-01T13:42:33.913Z,59.65
2018-05-01T13:43:33.935Z,59.94
2018-05-01T13:44:34.122Z,58.98
2018-05-01T13:45:34.340Z,59.55
2018-05-01T13:46:34.357Z,60.03
2018-05-01T13:47:34.971Z,59.75
2018-05-01T13:48:34.437Z,59.94
2018-05-01T13:49:35.107Z,59.65
2018-05-01T13:50:35.064Z,57.83
2018-05-01T13:51:35.591Z,58.4
2018-05-01T13:52:35.345Z,59.08
2018-05-01T13:53:35.680Z,58.79
2018-05-01T13:54:36.122Z,57.64
2018-05-01T13:55:36.123Z,57.06
2018-05-01T13:56:36.156Z,58.69
2018-05-01T13:57:36.188Z,59.17
2018-05-01T13:58:36.070Z,57.83
2018-05-01T13:59:36.268Z,58.31
2018-05-01T14:00:36.409Z,58.22
2018-05-01T14:01:36.320Z,58.59
2018-05-01T14:02:36.446Z,57.54
2018-05-01T14:03:36.341Z,57.54
2018-05-01T14:04:36.767Z,58.79
2018-05-01T14:05:36.402Z,57.7
2018-05-01T14:06:36.426Z,58.47
2018-05-01T14:07:36.991Z,58.56
2018-05-01T14:08:36.859Z,58.56
2018-05-01T14:09:37.062Z,58.28
2018-05-01T14:10:36.644Z,57.9
2018-05-01T14:11:37.043Z,56.94
2018-05-01T14:12:36.828Z,57.8
2018-05-01T14:13:37.233Z,57.9
2018-05-01T14:14:37.278Z,57.9
2018-05-01T14:15:37.687Z,59.23
2018-05-01T14:16:38.934Z,59.62
2018-05-01T14:17:39.137Z,58.66
2018-05-01T14:18:38.997Z,59.52
2018-05-01T14:19:39.407Z,58.56
2018-05-01T14:20:39.096Z,57.7
2018-05-01T14:21:39.174Z,58.18
2018-05-01T14:22:39.139Z,58.95
2018-05-01T14:23:39.503Z,59.05
2018-05-01T14:24:39.360Z,58.56
2018-05-01T14:25:39.910Z,58.56
2018-05-01T14:26:38.797Z,58.56
2018-05-01T14:27:38.835Z,57.42
2018-05-01T14:28:39.009Z,57.8
2018-05-01T14:29:39.167Z,57.7
2018-05-01T14:30:39.854Z,57.8
2018-05-01T14:31:40.276Z,57.7
2018-05-01T14:32:40.747Z,58.66
2018-05-01T14:33:40.094Z,57.61
2018-05-01T14:34:40.239Z,57.7
2018-05-01T14:35:40.743Z,58.28
2018-05-01T14:36:40.294Z,58.56
2018-05-01T14:37:40.313Z,57.13
2018-05-01T14:38:40.357Z,56.75
2018-05-01T14:39:40.085Z,57.7
2018-05-01T14:40:41.067Z,57.7
2018-05-01T14:41:40.895Z,58.37
2018-05-01T14:42:40.988Z,58.56
2018-05-01T14:43:40.561Z,58.18
2018-05-01T14:44:40.673Z,58.25
2018-05-01T14:45:40.569Z,58.73
2018-05-01T14:46:40.607Z,59.88
2018-05-01T14:47:40.599Z,60.26
2018-05-01T14:48:41.250Z,60.93
2018-05-01T14:49:40.786Z,60.55
2018-05-01T14:50:41.077Z,60.83
2018-05-01T14:51:41.078Z,60.93
2018-05-01T14:52:41.121Z,60.64
2018-05-01T14:53:41.558Z,60.55